Artigas, Uruguay

3:06 PM UYT on September 02, 2014 (GMT -0300)
Rubem Berta International | Change Station
CLOSE
Current Station
Airport
Location: Uruguaiana Airport,
Elevation: 243 ft
Nearby Weather Stations

Elev 243 ft 29.78 °S, 57.04 °W | Updated 6 minutes ago

Overcast
Overcast
61 °F
Feels Like 61 °F
N
21
Wind Variable Wind from SSE

Today
High -- | Low -- °F
--% Chance of Precip.
Yesterday
High -- | Low -- °F
Precip. -- in
7:00 AM 6:31 PM
First Quarter, 53% visible
Pressure 29.80 in
Visibility 6.2 miles
Clouds Overcast 1000 ft
Dew Point 57 °F
Humidity 88%
Rainfall 0.00 in
Snow Depth Not available.
UV 2 out of 12
Pollen Not available.
Air Quality Not available.
Flu Activity Not available.
METAR SBUG 021800Z 15018KT 9999 OVC010 16/14 Q1009

More Conditions Fewer Conditions

Pressure 29.80 in
Visibility 6.2 miles
Clouds Overcast 1000 ft
Dew Point 57 °F
Humidity 88%
Rainfall 0.00 in
Snow Depth Not available.
UV 2 out of 12
Pollen Not available.
Air Quality Not available.
Flu Activity Not available.
METAR SBUG 021800Z 15018KT 9999 OVC010 16/14 Q1009

More Conditions Fewer Conditions

10-Day Weather Forecast

Almanac

Astronomy

Sep. 02, 2014 Rise Set
Actual Time 7:00 AM UYT 6:31 PM UYT
Civil Twilight 6:36 AM UYT 6:55 PM UYT
Nautical Twilight 6:08 AM UYT 7:23 PM UYT
Astronomical Twilight 5:40 AM UYT 7:51 PM UYT
Moon 12:00 PM UYT 1:02 AM UYT
Length of Visible Light 12h 19m
Length of Day
11h 30m
Tomorrow will be 1m 44s longer.
First Quarter, 53% of the Moon is Illuminated
Today
First Quarter
Sep 8
Full
Sep 15
Last Quarter
Sep 24
New
Oct 1
First Quarter

Today's Extremes

Country Highs Country Lows

Community

WunderPhotos

Upload Photos

1,749,724 photos uploaded!

WunderBlogs® & News

Nearby

Snow Depth

Not available.

Earthquake Activity

City Distance Mag. Time & Date
No recent earthquake activity has been reported nearby.
Minimum magnitude displayed is 2.5.

Coastal Water Temperatures

Place Temperature
No Stations Reporting

Nearby Weather Stations